createdAt,value
2022-11-18T00:00:52.878Z,52999.95
2022-11-18T00:01:56.167Z,52970.89
2022-11-18T00:02:59.046Z,52966.89
2022-11-18T00:04:01.898Z,52869.69
2022-11-18T00:05:04.670Z,52981.92
2022-11-18T00:06:16.146Z,53002.96
2022-11-18T00:07:19.199Z,53067.09
2022-11-18T00:08:21.924Z,53140.24
2022-11-18T00:09:24.974Z,53050.05
2022-11-18T00:10:28.366Z,53076.11
2022-11-18T00:11:31.866Z,53142.25
2022-11-18T00:12:34.725Z,53131.22
2022-11-18T00:13:37.810Z,53201.37
2022-11-18T00:14:40.900Z,53156.27
2022-11-18T00:15:43.667Z,53085.13
2022-11-18T00:16:46.540Z,53119.20
2022-11-18T00:17:49.314Z,53127.21
2022-11-18T00:18:52.391Z,53129.22
2022-11-18T00:19:55.367Z,53108.17
2022-11-18T00:20:58.134Z,53185.34
2022-11-18T00:22:01.117Z,53185.34
2022-11-18T00:23:04.197Z,53092.14
2022-11-18T00:24:07.071Z,53083.13
2022-11-18T00:25:09.841Z,53090.14
2022-11-18T00:26:12.512Z,53133.23
2022-11-18T00:27:15.526Z,53107.17
2022-11-18T00:28:18.468Z,53071.10
2022-11-18T00:29:21.591Z,53100.16
2022-11-18T00:30:24.606Z,52985.92
2022-11-18T00:31:27.805Z,53012.98
2022-11-18T00:32:31.087Z,53054.06
2022-11-18T00:33:34.168Z,53058.07
2022-11-18T00:34:37.134Z,53046.05
2022-11-18T00:35:41.262Z,53015.98
2022-11-18T00:36:44.349Z,53019.99
2022-11-18T00:37:47.197Z,52993.94
2022-11-18T00:38:50.072Z,53000.95
2022-11-18T00:39:52.742Z,52973.90
2022-11-18T00:40:55.619Z,52965.88
2022-11-18T00:41:58.396Z,52970.89
2022-11-18T00:43:01.283Z,52981.92
2022-11-18T00:44:09.346Z,52958.87
2022-11-18T00:45:08.345Z,52969.89
2022-11-18T00:46:11.530Z,52928.81
2022-11-18T00:47:14.396Z,52979.91
2022-11-18T00:48:17.384Z,52954.86
2022-11-18T00:49:20.262Z,52987.93
2022-11-18T00:50:23.030Z,52999.95
2022-11-18T00:51:26.011Z,52960.88
2022-11-18T00:52:28.772Z,52978.91
2022-11-18T00:53:31.636Z,52992.94
2022-11-18T00:54:34.720Z,52994.94
2022-11-18T00:55:37.709Z,52992.94
2022-11-18T00:56:40.386Z,52950.85
2022-11-18T00:57:43.150Z,52976.91
2022-11-18T00:58:46.234Z,52969.89
2022-11-18T00:59:50.029Z,52944.84
2022-11-18T01:00:52.964Z,52927.80
2022-11-18T01:01:56.385Z,52935.82
2022-11-18T01:02:59.471Z,52973.90
2022-11-18T01:04:02.451Z,53015.98
2022-11-18T01:05:05.623Z,53025.00
2022-11-18T01:06:08.595Z,53004.96
2022-11-18T01:07:11.979Z,52970.89
2022-11-18T01:08:14.865Z,53037.03
2022-11-18T01:09:18.390Z,52996.95
2022-11-18T01:10:21.747Z,52986.93
2022-11-18T01:11:24.817Z,52988.93
2022-11-18T01:12:27.714Z,53003.96
2022-11-18T01:13:30.571Z,53026.01
2022-11-18T01:14:33.746Z,53060.07
2022-11-18T01:15:37.132Z,53024.00
2022-11-18T01:16:40.444Z,52983.92
2022-11-18T01:17:45.047Z,52986.93
2022-11-18T01:18:48.212Z,53030.02
2022-11-18T01:19:51.209Z,52990.93
2022-11-18T01:20:54.578Z,53033.02
2022-11-18T01:21:57.661Z,52985.92
2022-11-18T01:23:00.639Z,53026.01
2022-11-18T01:24:03.418Z,52973.90
2022-11-18T01:25:06.078Z,53001.96
2022-11-18T01:26:09.067Z,53024.00
2022-11-18T01:27:12.049Z,53029.01
2022-11-18T01:28:18.872Z,53026.01
2022-11-18T01:29:19.507Z,53013.98
2022-11-18T01:30:22.301Z,53069.09
2022-11-18T01:31:25.480Z,53052.06
2022-11-18T01:32:28.350Z,53042.04
2022-11-18T01:33:31.232Z,53010.98
2022-11-18T01:34:34.001Z,52981.92
2022-11-18T01:35:37.195Z,52991.94
2022-11-18T01:36:40.152Z,52969.89
2022-11-18T01:37:43.136Z,53033.02
2022-11-18T01:38:46.410Z,52985.92
2022-11-18T01:39:50.117Z,53011.98
2022-11-18T01:40:53.196Z,53073.10
2022-11-18T01:41:56.284Z,53024.00
2022-11-18T01:42:59.353Z,53069.09
2022-11-18T01:44:02.346Z,53094.14
2022-11-18T01:45:05.431Z,53058.07
2022-11-18T01:46:08.392Z,53050.05
2022-11-18T01:47:12.303Z,53064.08
2022-11-18T01:48:15.268Z,53090.14
2022-11-18T01:49:18.757Z,53073.10
2022-11-18T01:50:21.827Z,53030.02
2022-11-18T01:51:24.694Z,52976.91
2022-11-18T01:52:27.795Z,52957.87
2022-11-18T01:53:30.652Z,52940.83
2022-11-18T01:54:33.227Z,52998.95
2022-11-18T01:55:36.228Z,52928.81
2022-11-18T01:56:38.984Z,52982.92
2022-11-18T01:57:42.155Z,52995.95
2022-11-18T01:58:45.785Z,52975.91
2022-11-18T01:59:48.923Z,52999.95
2022-11-18T02:00:52.123Z,52989.93
2022-11-18T02:01:59.457Z,52992.94
2022-11-18T02:02:59.516Z,52927.80
2022-11-18T02:04:02.371Z,52993.94
2022-11-18T02:05:05.351Z,52964.88
2022-11-18T02:06:08.532Z,52957.87
2022-11-18T02:07:11.535Z,52991.94
2022-11-18T02:08:14.891Z,52960.88
2022-11-18T02:09:18.411Z,53026.01
2022-11-18T02:10:24.638Z,53006.97
2022-11-18T02:11:27.608Z,52995.95
2022-11-18T02:12:30.591Z,52993.94
2022-11-18T02:13:34.102Z,52956.86
2022-11-18T02:14:37.162Z,52952.86
2022-11-18T02:15:40.136Z,52941.84
2022-11-18T02:16:43.116Z,52915.78
2022-11-18T02:17:46.304Z,52907.77
2022-11-18T02:18:50.194Z,52962.88
2022-11-18T02:19:53.381Z,52963.88
2022-11-18T02:20:56.765Z,52989.93
2022-11-18T02:21:59.741Z,53000.95
2022-11-18T02:23:03.028Z,53026.01
2022-11-18T02:24:05.993Z,53011.98
2022-11-18T02:25:08.978Z,53031.02
2022-11-18T02:26:12.164Z,52990.93
2022-11-18T02:27:15.348Z,53045.04
2022-11-18T02:28:18.212Z,53006.97
2022-11-18T02:29:21.294Z,52977.91
2022-11-18T02:30:24.695Z,52981.92
2022-11-18T02:31:27.766Z,52954.86
2022-11-18T02:32:30.845Z,52993.94
2022-11-18T02:33:33.822Z,52964.88
2022-11-18T02:34:53.191Z,52989.93
2022-11-18T02:35:55.960Z,53009.97
2022-11-18T02:36:58.929Z,52951.86
2022-11-18T02:38:01.801Z,52989.93
2022-11-18T02:39:05.188Z,52981.92
2022-11-18T02:40:08.173Z,53049.05
2022-11-18T02:41:10.933Z,53014.98
2022-11-18T02:42:13.719Z,53011.98
2022-11-18T02:43:16.579Z,53018.99
2022-11-18T02:44:19.452Z,53010.98
2022-11-18T02:45:22.332Z,52993.94
2022-11-18T02:46:25.102Z,52991.94
2022-11-18T02:47:27.869Z,53040.04
2022-11-18T02:48:31.164Z,53024.00
2022-11-18T02:49:34.134Z,53016.99
2022-11-18T02:50:37.125Z,53021.00
2022-11-18T02:51:40.090Z,53055.07
2022-11-18T02:52:42.968Z,53040.04
2022-11-18T02:53:45.942Z,52988.93
2022-11-18T02:54:48.827Z,52996.95
2022-11-18T02:55:51.690Z,53024.00
2022-11-18T02:56:54.772Z,53012.98
2022-11-18T02:57:57.745Z,53057.07
2022-11-18T02:59:00.835Z,53072.10
2022-11-18T03:00:03.811Z,53004.96
2022-11-18T03:01:06.819Z,53040.04
2022-11-18T03:02:09.864Z,53083.13
2022-11-18T03:03:12.632Z,53045.04
2022-11-18T03:04:15.722Z,53047.05
2022-11-18T03:05:18.688Z,53012.98
2022-11-18T03:06:21.467Z,53032.02
2022-11-18T03:07:24.557Z,53015.98
2022-11-18T03:08:27.214Z,53064.08
2022-11-18T03:09:30.286Z,53097.15
2022-11-18T03:10:32.953Z,53064.08
2022-11-18T03:11:35.837Z,53072.10
2022-11-18T03:12:39.321Z,53051.06
2022-11-18T03:13:42.610Z,53079.11
2022-11-18T03:14:45.797Z,53071.10
2022-11-18T03:15:49.069Z,53062.08
2022-11-18T03:16:52.156Z,53046.05
2022-11-18T03:17:55.130Z,53042.04
2022-11-18T03:18:58.820Z,53044.04
2022-11-18T03:20:02.001Z,53014.98
2022-11-18T03:21:04.980Z,52985.92
2022-11-18T03:22:08.776Z,53012.98
2022-11-18T03:23:11.857Z,53007.97
2022-11-18T03:24:15.054Z,53035.02
2022-11-18T03:25:17.935Z,53083.13
2022-11-18T03:26:20.996Z,53083.13
2022-11-18T03:27:24.787Z,53101.16
2022-11-18T03:28:27.458Z,53046.05
2022-11-18T03:29:30.438Z,53058.07
2022-11-18T03:30:33.219Z,53047.05
2022-11-18T03:31:36.077Z,53043.04
2022-11-18T03:32:39.276Z,53087.13
2022-11-18T03:33:42.557Z,53036.03
2022-11-18T03:34:45.989Z,53040.04
2022-11-18T03:35:49.434Z,53086.13
2022-11-18T03:36:52.850Z,53046.05
2022-11-18T03:37:57.014Z,53058.07
2022-11-18T03:39:00.413Z,53069.09
2022-11-18T03:40:03.183Z,53036.03
2022-11-18T03:41:06.153Z,53078.11
2022-11-18T03:42:09.448Z,53097.15
2022-11-18T03:43:12.412Z,53146.25
2022-11-18T03:44:15.184Z,53132.22
2022-11-18T03:45:18.265Z,53122.20
2022-11-18T03:46:21.344Z,53225.42
2022-11-18T03:47:24.534Z,53262.50
2022-11-18T03:48:27.505Z,53255.48
2022-11-18T03:49:30.388Z,53268.51
2022-11-18T03:50:32.948Z,53249.47
2022-11-18T03:51:35.952Z,53216.40
2022-11-18T03:52:39.056Z,53200.37
2022-11-18T03:53:53.671Z,53245.46
2022-11-18T03:54:57.143Z,53202.37
2022-11-18T03:56:00.013Z,53175.31
2022-11-18T03:57:02.788Z,53195.36
2022-11-18T03:58:05.673Z,53182.33
2022-11-18T03:59:08.539Z,53152.27
2022-11-18T04:00:11.628Z,53164.29
2022-11-18T04:01:14.489Z,53159.28
2022-11-18T04:02:17.552Z,53073.10
2022-11-18T04:03:21.064Z,53116.19
2022-11-18T04:04:24.356Z,53120.20
2022-11-18T04:05:27.539Z,53120.20
2022-11-18T04:06:32.153Z,53130.22
2022-11-18T04:07:35.084Z,53145.25
2022-11-18T04:08:38.621Z,53187.34
2022-11-18T04:09:41.393Z,53190.34
2022-11-18T04:10:44.589Z,53218.40
2022-11-18T04:11:47.228Z,53290.55
2022-11-18T04:12:50.205Z,53253.48
2022-11-18T04:14:02.819Z,53175.31
2022-11-18T04:15:06.093Z,53203.37
2022-11-18T04:16:09.488Z,53210.39
2022-11-18T04:17:12.357Z,53300.57
2022-11-18T04:18:15.546Z,53285.54
2022-11-18T04:19:19.067Z,53223.41
2022-11-18T04:20:22.314Z,53235.44
2022-11-18T04:21:25.411Z,53186.34
2022-11-18T04:22:29.004Z,53202.37
2022-11-18T04:23:32.163Z,53219.41
2022-11-18T04:24:35.155Z,53222.41
2022-11-18T04:25:38.120Z,53167.30
2022-11-18T04:26:41.627Z,53168.30
2022-11-18T04:27:44.799Z,53151.26
2022-11-18T04:28:47.871Z,53178.32
2022-11-18T04:29:51.566Z,53138.23
2022-11-18T04:30:54.430Z,53174.31
2022-11-18T04:31:58.339Z,53162.29
2022-11-18T04:33:02.065Z,53161.29
2022-11-18T04:34:05.109Z,53159.28
2022-11-18T04:35:12.547Z,53186.34
2022-11-18T04:36:16.294Z,53125.21
2022-11-18T04:37:19.872Z,53153.27
2022-11-18T04:38:25.230Z,53128.21
2022-11-18T04:39:28.298Z,53194.35
2022-11-18T04:40:32.205Z,53169.30
2022-11-18T04:41:35.367Z,53173.31
2022-11-18T04:42:38.137Z,53188.34
2022-11-18T04:43:41.224Z,53155.27
2022-11-18T04:44:44.509Z,53170.30
2022-11-18T04:45:47.379Z,53176.32
2022-11-18T04:46:50.252Z,53225.42
2022-11-18T04:47:53.522Z,53215.40
2022-11-18T04:48:57.438Z,53183.33
2022-11-18T04:50:00.305Z,53146.25
2022-11-18T04:51:03.186Z,53179.32
2022-11-18T04:52:06.580Z,53209.38
2022-11-18T04:53:09.651Z,53202.37
2022-11-18T04:54:12.525Z,53190.34
2022-11-18T04:55:15.505Z,53206.38
2022-11-18T04:56:18.664Z,53212.39
2022-11-18T04:57:21.565Z,53240.45
2022-11-18T04:58:24.543Z,53158.28
2022-11-18T04:59:27.840Z,53216.40
2022-11-18T05:00:30.796Z,53245.46
2022-11-18T05:01:34.962Z,53234.44
2022-11-18T05:02:37.808Z,53244.46
2022-11-18T05:03:40.662Z,53282.54
2022-11-18T05:04:43.525Z,53284.54
2022-11-18T05:05:52.487Z,53281.54
2022-11-18T05:06:55.496Z,53286.55
2022-11-18T05:07:58.397Z,53267.51
2022-11-18T05:09:01.008Z,53283.54
2022-11-18T05:10:04.368Z,53231.43
2022-11-18T05:11:07.121Z,53285.54
2022-11-18T05:12:09.998Z,53393.77
2022-11-18T05:13:13.336Z,53425.84
2022-11-18T05:14:16.370Z,53301.58
2022-11-18T05:15:19.356Z,53309.59
2022-11-18T05:16:22.521Z,53270.51
2022-11-18T05:17:25.811Z,53284.54
2022-11-18T05:18:28.887Z,53341.66
2022-11-18T05:19:31.696Z,53255.48
2022-11-18T05:20:38.794Z,53277.53
2022-11-18T05:21:39.045Z,53306.59
2022-11-18T05:22:42.226Z,53310.60
2022-11-18T05:23:45.521Z,53322.62
2022-11-18T05:24:48.503Z,53337.66
2022-11-18T05:25:51.570Z,53366.72
2022-11-18T05:26:55.682Z,53335.65
2022-11-18T05:27:59.376Z,53350.68
2022-11-18T05:29:02.237Z,53283.54
2022-11-18T05:30:05.417Z,53310.60
2022-11-18T05:31:08.607Z,53345.67
2022-11-18T05:32:11.595Z,53366.72
2022-11-18T05:33:14.656Z,53344.67
2022-11-18T05:34:18.145Z,53311.60
2022-11-18T05:35:24.104Z,53272.52
2022-11-18T05:36:27.793Z,53307.59
2022-11-18T05:37:31.183Z,53349.68
2022-11-18T05:38:33.950Z,53440.88
2022-11-18T05:39:37.050Z,53473.95
2022-11-18T05:40:40.001Z,53577.17
2022-11-18T05:41:43.599Z,53699.44
2022-11-18T05:42:46.771Z,53723.49
2022-11-18T05:43:49.977Z,53712.47
2022-11-18T05:44:57.842Z,53760.57
2022-11-18T05:45:57.546Z,53773.60
2022-11-18T05:47:00.535Z,53772.60
2022-11-18T05:48:06.268Z,53955.01
2022-11-18T05:49:10.271Z,54068.27
2022-11-18T05:50:16.121Z,54065.27
2022-11-18T05:51:28.343Z,54047.22
2022-11-18T05:52:32.015Z,54137.43
2022-11-18T05:53:37.458Z,54150.46
2022-11-18T05:54:40.534Z,54206.59
2022-11-18T05:55:43.604Z,54238.67
2022-11-18T05:56:46.779Z,54271.75
2022-11-18T05:57:49.800Z,54196.57
2022-11-18T05:58:53.137Z,54034.19
2022-11-18T05:59:55.915Z,53954.01
2022-11-18T06:00:59.107Z,53864.81
2022-11-18T06:02:03.107Z,53907.91
2022-11-18T06:03:06.295Z,53911.91
2022-11-18T06:04:09.971Z,53867.81
2022-11-18T06:05:15.519Z,53759.57
2022-11-18T06:06:18.703Z,53682.40
2022-11-18T06:07:22.307Z,53676.39
2022-11-18T06:08:24.944Z,53654.34
2022-11-18T06:09:28.146Z,53601.22
2022-11-18T06:10:31.242Z,53745.54
2022-11-18T06:11:34.504Z,53814.70
2022-11-18T06:12:37.582Z,53859.80
2022-11-18T06:13:46.839Z,53896.88
2022-11-18T06:15:00.453Z,53851.78
2022-11-18T06:16:13.542Z,53903.90
2022-11-18T06:17:22.360Z,53912.92
2022-11-18T06:18:25.194Z,53934.97
2022-11-18T06:19:37.014Z,53778.61
2022-11-18T06:20:52.028Z,53674.38
2022-11-18T06:21:58.134Z,53602.22
2022-11-18T06:23:01.137Z,53644.32
2022-11-18T06:24:18.485Z,53661.36
2022-11-18T06:25:26.721Z,53617.26
2022-11-18T06:27:56.464Z,53818.70
2022-11-18T06:28:59.917Z,53964.04
2022-11-18T06:30:02.689Z,54176.52
2022-11-18T06:31:05.669Z,54300.81
2022-11-18T06:32:08.954Z,54293.80
2022-11-18T06:33:12.135Z,54294.80
2022-11-18T06:34:15.329Z,54152.46
2022-11-18T06:35:18.192Z,54049.23
2022-11-18T06:36:25.017Z,53972.05
2022-11-18T06:37:28.345Z,54012.14
2022-11-18T06:38:31.833Z,54057.25
2022-11-18T06:39:37.469Z,54108.36
2022-11-18T06:40:40.693Z,54202.58
2022-11-18T06:41:44.549Z,54210.60
2022-11-18T06:42:47.938Z,54133.42
2022-11-18T06:43:50.810Z,54081.30
2022-11-18T06:44:54.110Z,54103.35
2022-11-18T06:45:57.065Z,54161.49
2022-11-18T06:47:00.364Z,54198.57
2022-11-18T06:48:04.792Z,54139.44
2022-11-18T06:49:10.328Z,54219.62
2022-11-18T06:50:14.003Z,54363.96
2022-11-18T06:51:17.612Z,54480.24
2022-11-18T06:52:20.788Z,54571.46
2022-11-18T06:53:25.902Z,54739.87
2022-11-18T06:54:31.634Z,54810.05
2022-11-18T06:55:34.948Z,54886.24
2022-11-18T06:56:38.123Z,54967.45
2022-11-18T06:57:40.893Z,55016.57
2022-11-18T06:58:43.499Z,55018.57
2022-11-18T06:59:48.269Z,54938.37
2022-11-18T07:00:51.435Z,54913.31
2022-11-18T07:01:54.432Z,54924.34
2022-11-18T07:03:01.108Z,54890.25
2022-11-18T07:04:04.072Z,54910.30
2022-11-18T07:05:06.735Z,54931.36
2022-11-18T07:06:10.064Z,55041.63
2022-11-18T07:07:13.280Z,55003.54
2022-11-18T07:08:16.390Z,54948.40
2022-11-18T07:09:23.261Z,54887.24
2022-11-18T07:10:31.884Z,54947.39
2022-11-18T07:11:34.945Z,54961.43
2022-11-18T07:12:38.548Z,54894.26
2022-11-18T07:13:43.744Z,54837.12
2022-11-18T07:14:47.357Z,54928.35
2022-11-18T07:15:50.434Z,54936.37
2022-11-18T07:16:53.312Z,55064.69
2022-11-18T07:17:56.455Z,55142.89
2022-11-18T07:19:00.102Z,55169.96
2022-11-18T07:20:05.523Z,55239.14
2022-11-18T07:21:10.404Z,55257.19
2022-11-18T07:22:13.737Z,55219.09
2022-11-18T07:23:17.048Z,55325.37
2022-11-18T07:24:19.878Z,55189.01
2022-11-18T07:25:26.350Z,54947.39
2022-11-18T07:26:29.221Z,54800.02
2022-11-18T07:27:38.365Z,54800.02
2022-11-18T07:28:41.113Z,54735.87
2022-11-18T07:29:44.292Z,54755.91
2022-11-18T07:30:47.587Z,54837.12
2022-11-18T07:31:50.659Z,54932.36
2022-11-18T07:32:54.063Z,54944.39
2022-11-18T07:34:01.730Z,54992.51
2022-11-18T07:35:04.499Z,55075.72
2022-11-18T07:36:08.115Z,55170.96
2022-11-18T07:37:10.760Z,55172.97
2022-11-18T07:38:14.057Z,55239.14
2022-11-18T07:39:17.925Z,55202.05
2022-11-18T07:40:23.178Z,55203.05
2022-11-18T07:41:26.146Z,55349.43
2022-11-18T07:42:29.030Z,55403.57
2022-11-18T07:43:33.338Z,55407.59
2022-11-18T07:44:36.125Z,55437.66
2022-11-18T07:45:38.779Z,55347.43
2022-11-18T07:46:41.557Z,55375.50
2022-11-18T07:47:44.222Z,55381.52
2022-11-18T07:48:47.200Z,55407.59
2022-11-18T07:49:50.179Z,55509.86
2022-11-18T07:50:52.950Z,55545.95
2022-11-18T07:51:55.927Z,55575.03
2022-11-18T07:52:59.015Z,55596.09
2022-11-18T07:54:01.985Z,55715.41
2022-11-18T07:55:05.065Z,55762.54
2022-11-18T07:56:08.552Z,55802.65
2022-11-18T07:57:11.424Z,55866.82
2022-11-18T07:58:14.411Z,55910.95
2022-11-18T07:59:17.766Z,55943.04
2022-11-18T08:00:21.164Z,55943.04
2022-11-18T08:01:24.231Z,55951.06
2022-11-18T08:02:27.025Z,56038.30
2022-11-18T08:03:30.162Z,56092.45
2022-11-18T08:04:32.974Z,56147.61
2022-11-18T08:05:35.907Z,56244.89
2022-11-18T08:06:38.643Z,56273.97
2022-11-18T08:07:41.681Z,56390.30
2022-11-18T08:08:44.901Z,56452.48
2022-11-18T08:09:48.062Z,56483.57
2022-11-18T08:10:51.078Z,56561.80
2022-11-18T08:11:54.449Z,56629.00
2022-11-18T08:12:57.608Z,56715.25
2022-11-18T08:14:00.713Z,56728.29
2022-11-18T08:15:04.097Z,56745.34
2022-11-18T08:16:07.157Z,56856.68
2022-11-18T08:17:10.344Z,56903.82
2022-11-18T08:18:14.063Z,56889.78
2022-11-18T08:19:17.459Z,56949.96
2022-11-18T08:20:21.332Z,56955.98
2022-11-18T08:21:24.623Z,56992.09
2022-11-18T08:22:27.589Z,57044.25
2022-11-18T08:23:33.979Z,57061.30
2022-11-18T08:24:35.084Z,57110.45
2022-11-18T08:25:37.853Z,57134.52
2022-11-18T08:26:41.235Z,57115.46
2022-11-18T08:27:44.326Z,57165.62
2022-11-18T08:28:47.758Z,57154.59
2022-11-18T08:29:50.884Z,57141.54
2022-11-18T08:30:54.073Z,57143.55
2022-11-18T08:31:57.033Z,57143.55
2022-11-18T08:33:00.338Z,57145.55
2022-11-18T08:34:04.381Z,57152.58
2022-11-18T08:35:10.978Z,57169.63
2022-11-18T08:36:12.745Z,57144.55
2022-11-18T08:37:15.621Z,57204.74
2022-11-18T08:38:18.675Z,57163.61
2022-11-18T08:39:21.867Z,57185.68
2022-11-18T08:40:25.323Z,57192.70
2022-11-18T08:41:29.270Z,57136.53
2022-11-18T08:42:34.480Z,57126.50
2022-11-18T08:43:37.265Z,57004.13
2022-11-18T08:44:41.787Z,56914.85
2022-11-18T08:45:44.955Z,56906.83
2022-11-18T08:46:47.950Z,56945.95
2022-11-18T08:47:51.122Z,56966.01
2022-11-18T08:48:54.412Z,56995.10
2022-11-18T08:49:57.698Z,56964.00
2022-11-18T08:51:00.976Z,56998.11
2022-11-18T08:52:04.048Z,56999.11
2022-11-18T08:53:07.333Z,57015.16
2022-11-18T08:54:10.836Z,57029.20
2022-11-18T08:55:14.022Z,57059.29
2022-11-18T08:56:17.077Z,57088.38
2022-11-18T08:58:41.162Z,57062.30
2022-11-18T08:59:44.451Z,57074.34
2022-11-18T09:00:48.271Z,56997.10
2022-11-18T09:01:51.501Z,57026.19
2022-11-18T09:02:55.423Z,57035.22
2022-11-18T09:03:58.507Z,57093.39
2022-11-18T09:05:01.592Z,57091.39
2022-11-18T09:06:04.741Z,57078.35
2022-11-18T09:07:07.705Z,57164.61
2022-11-18T09:08:11.035Z,57157.59
2022-11-18T09:09:14.840Z,57219.79
2022-11-18T09:10:21.688Z,57266.93
2022-11-18T09:11:25.586Z,57270.95
2022-11-18T09:12:29.086Z,57313.07
2022-11-18T09:15:40.779Z,57377.28
2022-11-18T09:16:43.867Z,57404.36
2022-11-18T09:17:47.347Z,57404.36
2022-11-18T09:18:50.330Z,57469.57
2022-11-18T09:19:53.101Z,57476.59
2022-11-18T09:20:56.788Z,57499.66
2022-11-18T09:21:59.772Z,57493.64
2022-11-18T09:23:03.162Z,57566.87
2022-11-18T09:24:09.616Z,57575.91
2022-11-18T09:25:16.275Z,57592.96
2022-11-18T09:26:19.356Z,57640.11
2022-11-18T09:27:22.572Z,57631.08
2022-11-18T09:28:25.757Z,57662.18
2022-11-18T09:29:28.811Z,57681.24
2022-11-18T09:30:32.388Z,57666.20
2022-11-18T09:31:38.451Z,57719.36
2022-11-18T09:32:44.185Z,57762.50
2022-11-18T09:33:47.268Z,57765.51
2022-11-18T09:34:50.757Z,57854.80
2022-11-18T09:35:56.735Z,57889.92
2022-11-18T09:36:59.997Z,57891.93
2022-11-18T09:38:02.977Z,57886.91
2022-11-18T09:39:06.513Z,57946.10
2022-11-18T09:40:09.635Z,57918.01
2022-11-18T09:41:12.302Z,57949.11
2022-11-18T09:42:15.714Z,58020.34
2022-11-18T09:43:19.188Z,58026.37
2022-11-18T09:44:22.874Z,58126.70
2022-11-18T09:45:26.164Z,58123.69
2022-11-18T09:46:30.045Z,58140.75
2022-11-18T09:47:33.125Z,58142.75
2022-11-18T09:48:36.120Z,58179.87
2022-11-18T09:49:39.302Z,58153.79
2022-11-18T09:50:49.512Z,58173.86
2022-11-18T09:51:47.298Z,58137.73
2022-11-18T09:52:50.375Z,58151.78
2022-11-18T09:53:53.250Z,58223.02
2022-11-18T09:54:57.054Z,58158.80
2022-11-18T09:56:00.606Z,58189.91
2022-11-18T09:57:03.817Z,58222.02
2022-11-18T09:58:07.164Z,58199.94
2022-11-18T09:59:10.900Z,58191.92
2022-11-18T10:00:15.931Z,58218.00
2022-11-18T10:01:19.138Z,58221.01
2022-11-18T10:02:21.989Z,58274.19
2022-11-18T10:03:24.764Z,58278.21
2022-11-18T10:04:27.726Z,58260.14
2022-11-18T10:05:30.921Z,58320.35
2022-11-18T10:06:33.902Z,58289.24
2022-11-18T10:07:38.603Z,58316.33
2022-11-18T10:08:41.496Z,58298.27
2022-11-18T10:09:44.455Z,58301.28
2022-11-18T10:10:48.556Z,58284.23
2022-11-18T10:11:52.272Z,58309.31
2022-11-18T10:12:55.747Z,58300.28
2022-11-18T10:13:58.973Z,58312.32
2022-11-18T10:15:03.440Z,58295.26
2022-11-18T10:16:06.424Z,58285.23
2022-11-18T10:17:09.486Z,58268.17
2022-11-18T10:18:14.052Z,58276.20
2022-11-18T10:19:16.745Z,58258.14
2022-11-18T10:20:20.227Z,58242.08
2022-11-18T10:21:23.142Z,58234.06
2022-11-18T10:22:26.123Z,58213.99
2022-11-18T10:23:28.693Z,58220.01
2022-11-18T10:24:32.191Z,58211.98
2022-11-18T10:25:35.052Z,58185.89
2022-11-18T10:26:37.728Z,58198.94
2022-11-18T10:27:40.587Z,58209.98
2022-11-18T10:28:43.386Z,58204.96
2022-11-18T10:29:47.495Z,58233.05
2022-11-18T10:30:50.471Z,58184.89
2022-11-18T10:31:53.223Z,58179.87
2022-11-18T10:32:56.730Z,58157.80
2022-11-18T10:34:00.217Z,58168.84
2022-11-18T10:35:03.080Z,58150.78
2022-11-18T10:36:06.257Z,58135.73
2022-11-18T10:37:09.544Z,58152.79
2022-11-18T10:38:13.351Z,58245.09
2022-11-18T10:39:19.116Z,58197.94
2022-11-18T10:40:22.176Z,58196.93
2022-11-18T10:41:26.999Z,58188.91
2022-11-18T10:42:30.259Z,58218.00
2022-11-18T10:43:37.529Z,58216.00
2022-11-18T10:44:40.234Z,58214.99
2022-11-18T10:45:45.346Z,58260.14
2022-11-18T10:46:48.309Z,58272.18
2022-11-18T10:47:51.705Z,58283.22
2022-11-18T10:48:55.609Z,58291.25
2022-11-18T10:49:58.584Z,58333.39
2022-11-18T10:51:01.380Z,58343.43
2022-11-18T10:52:04.637Z,58368.51
2022-11-18T10:53:07.714Z,58362.49
2022-11-18T10:54:10.914Z,58329.38
2022-11-18T10:55:19.928Z,58315.33
2022-11-18T10:56:23.420Z,58312.32
2022-11-18T10:57:26.734Z,58298.27
2022-11-18T10:58:32.649Z,58280.21
2022-11-18T10:59:37.482Z,58260.14
2022-11-18T11:00:40.944Z,58269.18
2022-11-18T11:01:43.967Z,58242.08
2022-11-18T11:02:47.211Z,58207.97
2022-11-18T11:03:50.594Z,58202.95
2022-11-18T11:04:54.082Z,58170.84
2022-11-18T11:05:57.386Z,58167.84
2022-11-18T11:07:01.074Z,58121.68
2022-11-18T11:08:34.306Z,58147.77
2022-11-18T11:09:08.873Z,58115.66
2022-11-18T11:10:12.146Z,58152.79
2022-11-18T11:11:16.038Z,58136.73
2022-11-18T11:12:19.544Z,58151.78
2022-11-18T11:13:22.817Z,58173.86
2022-11-18T11:14:26.937Z,58192.92
2022-11-18T11:15:29.886Z,58250.11
2022-11-18T11:17:53.844Z,58252.12
2022-11-18T11:18:56.742Z,58337.41
2022-11-18T11:20:02.282Z,58337.41
2022-11-18T11:21:05.682Z,58291.25
2022-11-18T11:22:09.165Z,58338.41
2022-11-18T11:23:12.347Z,58304.29
2022-11-18T11:24:17.153Z,58274.19
2022-11-18T11:25:21.181Z,58259.14
2022-11-18T11:28:36.749Z,58252.12
2022-11-18T11:29:40.024Z,58256.13
2022-11-18T11:30:45.317Z,58253.12
2022-11-18T11:31:47.859Z,58212.98
2022-11-18T11:32:51.234Z,58251.11
2022-11-18T11:33:54.390Z,58264.16
2022-11-18T11:34:57.575Z,58236.06
2022-11-18T11:36:01.178Z,58245.09
2022-11-18T11:37:04.569Z,58234.06
2022-11-18T11:38:07.423Z,58200.95
2022-11-18T11:39:11.233Z,58228.04
2022-11-18T11:40:14.100Z,58236.06
2022-11-18T11:41:17.482Z,58261.15
2022-11-18T11:42:20.467Z,58290.25
2022-11-18T11:43:23.857Z,58281.21
2022-11-18T11:44:27.030Z,58271.18
2022-11-18T11:45:30.010Z,58288.24
2022-11-18T11:46:32.990Z,58238.07
2022-11-18T11:47:35.659Z,58246.10
2022-11-18T11:48:38.967Z,58210.98
2022-11-18T11:49:42.155Z,58253.12
2022-11-18T11:50:49.600Z,58187.90
2022-11-18T11:51:49.938Z,58189.91
2022-11-18T11:52:53.288Z,58179.87
2022-11-18T11:53:57.195Z,58175.86
2022-11-18T11:55:00.484Z,58113.66
2022-11-18T11:56:04.932Z,58154.79
2022-11-18T11:57:08.061Z,58092.59
2022-11-18T11:58:11.764Z,58108.64
2022-11-18T11:59:16.583Z,58087.57
2022-11-18T12:00:20.475Z,58070.51
2022-11-18T12:01:23.454Z,58122.68
2022-11-18T12:02:27.417Z,58092.59
2022-11-18T12:03:34.340Z,58123.69
2022-11-18T12:04:37.605Z,58185.89
2022-11-18T12:07:01.778Z,58272.18
2022-11-18T12:08:05.490Z,58418.68
2022-11-18T12:09:08.850Z,58522.03
2022-11-18T12:10:12.052Z,58537.09
2022-11-18T12:11:15.543Z,58621.37
2022-11-18T12:12:19.453Z,58682.59
2022-11-18T12:13:23.334Z,58782.93
2022-11-18T12:14:26.523Z,58813.04
2022-11-18T12:15:29.799Z,58867.23
2022-11-18T12:16:33.310Z,58934.46
2022-11-18T12:17:36.886Z,58898.34
2022-11-18T12:18:39.872Z,58914.39
2022-11-18T12:19:42.736Z,58942.50
2022-11-18T12:20:46.325Z,58918.41
2022-11-18T12:21:50.223Z,58910.38
2022-11-18T12:22:54.535Z,58814.04
2022-11-18T12:23:58.958Z,58801.00
2022-11-18T12:25:02.131Z,58814.04
2022-11-18T12:26:05.632Z,58782.93
2022-11-18T12:27:08.911Z,58708.68
2022-11-18T12:28:12.391Z,58692.62
2022-11-18T12:29:18.939Z,58672.55
2022-11-18T12:30:26.132Z,58597.29
2022-11-18T12:31:37.194Z,58485.91
2022-11-18T12:32:40.538Z,58426.71
2022-11-18T12:33:53.911Z,58358.48
2022-11-18T12:34:56.995Z,58287.23
2022-11-18T12:36:00.477Z,58235.06
2022-11-18T12:37:03.662Z,58157.80